createdAt,value
2023-02-02T00:00:36.190Z,94.05
2023-02-02T00:03:04.720Z,88.88
2023-02-02T00:05:34.438Z,87.80
2023-02-02T00:08:02.312Z,87.13
2023-02-02T00:10:30.374Z,88.60
2023-02-02T00:13:00.045Z,87.70
2023-02-02T00:15:27.668Z,88.97
2023-02-02T00:17:55.457Z,88.63
2023-02-02T00:20:25.156Z,86.10
2023-02-02T00:22:52.761Z,87.85
2023-02-02T00:25:20.454Z,86.63
2023-02-02T00:27:50.180Z,89.15
2023-02-02T00:30:18.513Z,85.22
2023-02-02T00:32:46.486Z,87.55
2023-02-02T00:35:16.222Z,90.05
2023-02-02T00:37:43.806Z,88.60
2023-02-02T00:40:12.201Z,88.95
2023-02-02T00:42:42.103Z,90.18
2023-02-02T00:45:09.822Z,87.05
2023-02-02T00:47:37.851Z,89.30
2023-02-02T00:50:07.585Z,94.03
2023-02-02T00:52:35.168Z,95.03
2023-02-02T00:55:02.863Z,99.38
2023-02-02T00:57:32.853Z,104.80
2023-02-02T01:00:00.441Z,103.47
2023-02-02T01:02:28.463Z,104.60
2023-02-02T01:04:58.264Z,103.95
2023-02-02T01:07:25.849Z,101.80
2023-02-02T01:09:53.556Z,101.63
2023-02-02T01:12:23.547Z,99.57
2023-02-02T01:14:51.267Z,104.15
2023-02-02T01:17:19.148Z,101.97
2023-02-02T01:19:47.801Z,94.75
2023-02-02T01:22:15.392Z,95.43
2023-02-02T01:24:43.428Z,96.50
2023-02-02T01:27:13.138Z,95.05
2023-02-02T01:29:40.724Z,94.03
2023-02-02T01:32:09.140Z,91.38
2023-02-02T01:34:37.927Z,94.28
2023-02-02T01:37:05.698Z,94.22
2023-02-02T01:39:34.359Z,95.85
2023-02-02T01:42:04.109Z,96.63
2023-02-02T01:44:31.800Z,94.72
2023-02-02T01:46:59.844Z,98.55
2023-02-02T01:49:29.595Z,93.47
2023-02-02T01:51:57.113Z,92.95
2023-02-02T01:54:28.422Z,91.20
2023-02-02T01:56:58.306Z,89.00
2023-02-02T01:59:25.870Z,84.75
2023-02-02T02:01:53.658Z,83.05
2023-02-02T02:04:23.500Z,85.07
2023-02-02T02:06:51.238Z,82.95
2023-02-02T02:09:18.966Z,83.30
2023-02-02T02:11:48.781Z,82.47
2023-02-02T02:14:16.426Z,81.32
2023-02-02T02:16:46.984Z,80.32
2023-02-02T02:19:17.267Z,77.07
2023-02-02T02:21:45.164Z,78.05
2023-02-02T02:24:14.175Z,74.93
2023-02-02T02:26:44.050Z,72.13
2023-02-02T02:29:11.729Z,75.70
2023-02-02T02:31:39.328Z,77.07
2023-02-02T02:34:09.261Z,82.57
2023-02-02T02:36:37.367Z,80.28
2023-02-02T02:39:04.840Z,81.20
2023-02-02T02:41:34.778Z,82.22
2023-02-02T02:44:02.643Z,72.15
2023-02-02T02:46:30.405Z,79.35
2023-02-02T02:49:00.182Z,61.53
2023-02-02T02:51:28.735Z,65.00
2023-02-02T02:53:56.363Z,66.50
2023-02-02T02:56:26.229Z,59.78
2023-02-02T02:58:53.955Z,61.50
2023-02-02T03:01:21.677Z,65.15
2023-02-02T03:03:51.531Z,66.40
2023-02-02T03:06:19.240Z,67.85
2023-02-02T03:08:47.356Z,67.57
2023-02-02T03:11:17.129Z,62.92
2023-02-02T03:13:45.564Z,59.45
2023-02-02T03:16:13.190Z,55.97
2023-02-02T03:18:43.080Z,58.47
2023-02-02T03:21:10.842Z,59.72
2023-02-02T03:23:38.405Z,60.97
2023-02-02T03:26:08.206Z,58.28
2023-02-02T03:28:36.447Z,58.90
2023-02-02T03:31:04.023Z,54.83
2023-02-02T03:33:34.114Z,53.75
2023-02-02T03:36:01.901Z,51.28
2023-02-02T03:38:29.596Z,50.85
2023-02-02T03:40:59.422Z,49.53
2023-02-02T03:43:27.276Z,53.67
2023-02-02T03:45:54.844Z,53.35
2023-02-02T03:48:24.749Z,52.55
2023-02-02T03:50:52.508Z,53.72
2023-02-02T03:53:20.273Z,52.13
2023-02-02T03:55:50.029Z,51.70
2023-02-02T03:58:18.230Z,52.55
2023-02-02T04:00:45.748Z,49.13
2023-02-02T04:03:15.513Z,48.78
2023-02-02T04:05:43.286Z,46.92
2023-02-02T04:08:10.908Z,44.78
2023-02-02T04:10:40.826Z,45.17
2023-02-02T04:13:09.282Z,43.10
2023-02-02T04:15:36.845Z,38.00
2023-02-02T04:18:08.211Z,40.83
2023-02-02T04:20:36.491Z,39.15
2023-02-02T04:23:04.044Z,39.78
2023-02-02T04:25:34.504Z,31.30
2023-02-02T04:28:02.238Z,32.05
2023-02-02T04:30:29.890Z,32.88
2023-02-02T04:32:58.864Z,32.10
2023-02-02T04:35:27.356Z,33.10
2023-02-02T04:37:54.953Z,33.78
2023-02-02T04:40:24.736Z,33.53
2023-02-02T04:42:52.409Z,34.75
2023-02-02T04:45:19.976Z,37.20
2023-02-02T04:47:49.720Z,34.67
2023-02-02T04:50:18.391Z,34.03
2023-02-02T04:52:45.958Z,32.65
2023-02-02T04:55:16.350Z,31.35
2023-02-02T04:57:44.842Z,30.27
2023-02-02T05:00:12.437Z,29.17
2023-02-02T05:02:42.310Z,29.17
2023-02-02T05:05:10.134Z,25.35
2023-02-02T05:07:37.720Z,24.98
2023-02-02T05:10:07.499Z,27.48
2023-02-02T05:12:35.379Z,29.88
2023-02-02T05:15:03.559Z,29.42
2023-02-02T05:17:33.462Z,29.90
2023-02-02T05:20:02.192Z,30.77
2023-02-02T05:22:29.692Z,29.75
2023-02-02T05:24:59.548Z,29.80
2023-02-02T05:27:27.426Z,28.65
2023-02-02T05:29:54.935Z,27.20
2023-02-02T05:32:24.776Z,28.00
2023-02-02T05:34:52.387Z,28.83
2023-02-02T05:37:19.970Z,29.52
2023-02-02T05:39:49.653Z,29.10
2023-02-02T05:42:18.803Z,28.83
2023-02-02T05:44:46.393Z,29.05
2023-02-02T05:47:16.187Z,28.40
2023-02-02T05:49:44.559Z,28.17
2023-02-02T05:52:12.130Z,28.17
2023-02-02T05:54:39.756Z,28.38
2023-02-02T05:57:07.743Z,28.88
2023-02-02T05:59:35.266Z,28.73
2023-02-02T06:02:05.036Z,27.77
2023-02-02T06:04:32.697Z,29.65
2023-02-02T06:07:00.333Z,26.90
2023-02-02T06:09:30.086Z,28.65
2023-02-02T06:11:58.433Z,28.42
2023-02-02T06:14:25.943Z,27.38
2023-02-02T06:16:56.575Z,27.33
2023-02-02T06:19:25.164Z,26.75
2023-02-02T06:21:53.004Z,27.58
2023-02-02T06:24:37.339Z,26.20
2023-02-02T06:27:04.910Z,28.85
2023-02-02T06:29:32.600Z,27.67
2023-02-02T06:32:03.439Z,27.70
2023-02-02T06:34:31.040Z,26.10
2023-02-02T06:36:58.850Z,26.38
2023-02-02T06:39:28.844Z,26.67
2023-02-02T06:41:56.494Z,25.90
2023-02-02T06:44:24.889Z,24.85
2023-02-02T06:46:55.669Z,25.00
2023-02-02T06:49:24.245Z,23.25
2023-02-02T06:51:51.938Z,23.77
2023-02-02T06:54:22.672Z,24.35
2023-02-02T06:56:50.260Z,24.35
2023-02-02T06:59:17.858Z,23.42
2023-02-02T07:01:48.477Z,23.40
2023-02-02T07:04:16.085Z,24.00
2023-02-02T07:06:43.688Z,22.58
2023-02-02T07:09:13.525Z,22.73
2023-02-02T07:11:41.789Z,21.80
2023-02-02T07:14:12.527Z,22.13
2023-02-02T07:16:42.340Z,22.00
2023-02-02T07:19:10.001Z,22.25
2023-02-02T07:21:37.707Z,22.92
2023-02-02T07:24:07.651Z,23.48
2023-02-02T07:26:35.237Z,22.63
2023-02-02T07:29:03.415Z,23.33
2023-02-02T07:31:36.534Z,23.77
2023-02-02T07:34:05.303Z,22.05
2023-02-02T07:36:32.859Z,21.98
2023-02-02T07:39:02.666Z,21.38
2023-02-02T07:41:30.419Z,22.52
2023-02-02T07:43:58.030Z,20.85
2023-02-02T07:46:28.221Z,20.80
2023-02-02T07:48:56.786Z,21.13
2023-02-02T07:51:24.356Z,21.55
2023-02-02T07:53:54.176Z,20.27
2023-02-02T07:56:22.830Z,19.92
2023-02-02T07:58:50.492Z,20.38
2023-02-02T08:01:20.549Z,19.42
2023-02-02T08:03:49.497Z,20.02
2023-02-02T08:06:17.079Z,19.50
2023-02-02T08:08:46.822Z,20.45
2023-02-02T08:11:14.387Z,20.73
2023-02-02T08:13:41.985Z,19.33
2023-02-02T08:16:09.661Z,19.42
2023-02-02T08:18:37.623Z,18.77
2023-02-02T08:21:05.208Z,20.38
2023-02-02T08:23:32.954Z,20.83
2023-02-02T08:26:01.023Z,20.92
2023-02-02T08:28:28.540Z,20.30
2023-02-02T08:30:56.253Z,19.13
2023-02-02T08:33:23.935Z,18.90
2023-02-02T08:35:51.537Z,20.13
2023-02-02T08:38:21.369Z,18.75
2023-02-02T08:40:49.494Z,19.40
2023-02-02T08:43:17.054Z,19.10
2023-02-02T08:46:13.438Z,19.60
2023-02-02T08:48:34.768Z,18.98
2023-02-02T08:51:04.744Z,19.35
2023-02-02T08:53:32.998Z,18.58
2023-02-02T08:56:01.483Z,18.13
2023-02-02T08:58:31.211Z,18.75
2023-02-02T09:00:58.820Z,18.40
2023-02-02T09:03:26.500Z,19.38
2023-02-02T09:05:54.172Z,18.15
2023-02-02T09:08:21.773Z,25.33
2023-02-02T09:10:49.616Z,205.70
2023-02-02T09:13:19.694Z,142.73
2023-02-02T09:15:48.209Z,30.50
2023-02-02T09:18:16.195Z,37.75
2023-02-02T09:20:43.950Z,22.77
2023-02-02T09:23:11.451Z,19.77
2023-02-02T09:25:39.509Z,18.10
2023-02-02T09:28:09.384Z,17.55
2023-02-02T09:30:37.081Z,18.20
2023-02-02T09:33:05.060Z,18.60
2023-02-02T09:35:33.992Z,18.17
2023-02-02T09:38:01.594Z,18.52
2023-02-02T09:40:29.347Z,19.60
2023-02-02T09:42:56.979Z,20.30
2023-02-02T09:45:24.924Z,19.55
2023-02-02T09:47:52.686Z,19.05
2023-02-02T09:50:20.292Z,19.50
2023-02-02T09:52:47.836Z,21.55
2023-02-02T09:55:15.506Z,20.13
2023-02-02T09:57:45.271Z,18.90
2023-02-02T10:00:12.961Z,18.02
2023-02-02T10:02:41.118Z,18.48
2023-02-02T10:05:08.814Z,17.77
2023-02-02T10:07:36.418Z,18.40
2023-02-02T10:10:04.292Z,19.15
2023-02-02T10:12:34.664Z,19.35
2023-02-02T10:15:02.349Z,20.65
2023-02-02T10:17:30.091Z,20.90
2023-02-02T10:19:57.960Z,21.65
2023-02-02T10:22:25.530Z,22.50
2023-02-02T10:24:53.330Z,25.02
2023-02-02T10:27:23.104Z,27.13
2023-02-02T10:29:50.872Z,24.38
2023-02-02T10:32:19.948Z,23.30
2023-02-02T10:34:50.344Z,21.02
2023-02-02T10:37:18.788Z,20.42
2023-02-02T10:39:46.602Z,20.83
2023-02-02T10:42:16.623Z,20.42
2023-02-02T10:44:44.217Z,20.67
2023-02-02T10:47:12.328Z,19.98
2023-02-02T10:49:40.009Z,19.17
2023-02-02T10:52:07.554Z,19.85
2023-02-02T10:54:50.049Z,18.73
2023-02-02T10:57:25.019Z,18.33
2023-02-02T10:59:53.053Z,17.48
2023-02-02T11:02:21.452Z,19.90
2023-02-02T11:04:49.255Z,19.42
2023-02-02T11:07:17.081Z,22.73
2023-02-02T11:09:44.606Z,22.35
2023-02-02T11:12:12.269Z,21.33
2023-02-02T11:14:45.052Z,22.35
2023-02-02T11:17:15.653Z,23.02
2023-02-02T11:19:43.227Z,23.23
2023-02-02T11:22:10.759Z,23.27
2023-02-02T11:24:38.418Z,22.92
2023-02-02T11:27:06.346Z,22.60
2023-02-02T11:29:34.168Z,24.88
2023-02-02T11:32:03.959Z,25.33
2023-02-02T11:34:31.842Z,24.75
2023-02-02T11:36:59.546Z,27.25
2023-02-02T11:39:29.349Z,30.10
2023-02-02T11:41:56.959Z,28.42
2023-02-02T11:44:24.511Z,30.80
2023-02-02T11:46:54.359Z,31.35
2023-02-02T11:49:22.212Z,35.22
2023-02-02T11:51:49.811Z,35.65
2023-02-02T11:54:19.565Z,36.70
2023-02-02T11:56:47.453Z,43.53
2023-02-02T11:59:15.079Z,48.63
2023-02-02T12:01:42.858Z,49.00
2023-02-02T12:04:10.789Z,44.08
2023-02-02T12:06:38.290Z,43.03
2023-02-02T12:09:08.000Z,39.67
2023-02-02T12:11:35.793Z,36.40
2023-02-02T12:14:03.393Z,33.85
2023-02-02T12:16:33.316Z,31.63
2023-02-02T12:19:01.169Z,32.15
2023-02-02T12:21:28.641Z,32.53
2023-02-02T12:23:57.660Z,36.60
2023-02-02T12:26:25.378Z,37.38
2023-02-02T12:28:52.938Z,42.60
2023-02-02T12:31:20.643Z,39.00
2023-02-02T12:33:48.299Z,38.25
2023-02-02T12:36:15.870Z,38.72
2023-02-02T12:38:45.731Z,37.38
2023-02-02T12:41:13.758Z,36.03
2023-02-02T12:43:41.339Z,36.95
2023-02-02T12:46:11.708Z,35.88
2023-02-02T12:48:41.286Z,36.25
2023-02-02T12:51:08.850Z,37.90
2023-02-02T12:53:38.612Z,38.78
2023-02-02T12:56:09.127Z,40.55
2023-02-02T12:58:36.662Z,43.70
2023-02-02T13:01:06.491Z,42.80
2023-02-02T13:03:34.363Z,42.53
2023-02-02T13:06:02.024Z,47.72
2023-02-02T13:08:31.799Z,47.25
2023-02-02T13:11:01.594Z,40.58
2023-02-02T13:13:29.507Z,37.75
2023-02-02T13:15:57.700Z,37.88
2023-02-02T13:18:25.361Z,39.03
2023-02-02T13:20:52.937Z,38.83
2023-02-02T13:23:23.482Z,39.97
2023-02-02T13:25:51.232Z,36.97
2023-02-02T13:28:20.756Z,39.13
2023-02-02T13:30:50.726Z,40.58
2023-02-02T13:33:20.591Z,39.17
2023-02-02T13:35:48.248Z,38.92
2023-02-02T13:38:18.039Z,37.47
2023-02-02T13:40:45.845Z,36.45
2023-02-02T13:43:13.601Z,34.67
2023-02-02T13:45:43.414Z,35.75
2023-02-02T13:48:11.487Z,39.58
2023-02-02T13:50:39.078Z,38.95
2023-02-02T13:53:08.914Z,41.22
2023-02-02T13:55:36.561Z,36.65
2023-02-02T13:58:04.166Z,31.58
2023-02-02T14:00:33.992Z,30.13
2023-02-02T14:03:01.606Z,30.80
2023-02-02T14:05:29.261Z,28.90
2023-02-02T14:07:59.044Z,30.38
2023-02-02T14:10:26.979Z,31.60
2023-02-02T14:12:54.641Z,31.88
2023-02-02T14:15:24.791Z,32.70
2023-02-02T14:17:52.620Z,32.85
2023-02-02T14:20:20.265Z,33.17
2023-02-02T14:22:50.503Z,34.00
2023-02-02T14:25:18.470Z,34.28
2023-02-02T14:27:46.203Z,34.42
2023-02-02T14:30:16.202Z,33.55
2023-02-02T14:32:44.063Z,34.47
2023-02-02T14:35:13.485Z,33.47
2023-02-02T14:37:43.429Z,34.17
2023-02-02T14:40:11.112Z,34.85
2023-02-02T14:42:38.794Z,35.00
2023-02-02T14:45:08.693Z,34.95
2023-02-02T14:47:36.470Z,34.60
2023-02-02T14:50:06.266Z,34.55
2023-02-02T14:52:33.824Z,33.15
2023-02-02T14:55:01.425Z,32.67
2023-02-02T14:57:34.120Z,32.22
2023-02-02T15:00:01.978Z,33.75
2023-02-02T15:02:29.681Z,32.53
2023-02-02T15:04:59.551Z,33.10
2023-02-02T15:07:27.930Z,33.25
2023-02-02T15:09:55.832Z,34.03
2023-02-02T15:12:25.650Z,33.65
2023-02-02T15:14:54.434Z,33.55
2023-02-02T15:17:22.276Z,33.35
2023-02-02T15:19:49.933Z,32.88
2023-02-02T15:22:19.562Z,33.75
2023-02-02T15:24:47.111Z,33.05
2023-02-02T15:27:16.577Z,34.13
2023-02-02T15:29:44.191Z,33.53
2023-02-02T15:32:11.743Z,32.60
2023-02-02T15:34:41.493Z,30.95
2023-02-02T15:37:09.152Z,33.25
2023-02-02T15:39:36.829Z,32.85
2023-02-02T15:42:06.715Z,33.03
2023-02-02T15:44:34.313Z,32.40
2023-02-02T15:47:01.920Z,33.72
2023-02-02T15:49:34.709Z,33.58
2023-02-02T15:52:02.858Z,32.22
2023-02-02T15:54:32.559Z,31.02
2023-02-02T15:57:00.123Z,30.95
2023-02-02T15:59:27.911Z,31.58
2023-02-02T16:01:57.726Z,31.15
2023-02-02T16:04:25.482Z,32.50
2023-02-02T16:06:53.262Z,30.95
2023-02-02T16:09:22.957Z,31.92
2023-02-02T16:11:50.728Z,31.65
2023-02-02T16:14:18.397Z,32.45
2023-02-02T16:16:48.162Z,31.60
2023-02-02T16:19:15.883Z,33.70
2023-02-02T16:21:43.503Z,33.72
2023-02-02T16:24:13.152Z,32.33
2023-02-02T16:26:40.815Z,32.08
2023-02-02T16:29:08.485Z,32.38
2023-02-02T16:31:38.315Z,35.40
2023-02-02T16:34:05.903Z,37.80
2023-02-02T16:36:33.787Z,38.83
2023-02-02T16:39:04.001Z,39.78
2023-02-02T16:41:31.569Z,38.85
2023-02-02T16:43:59.419Z,41.30
2023-02-02T16:46:27.049Z,41.42
2023-02-02T16:48:54.606Z,39.25
2023-02-02T16:51:22.316Z,39.40
2023-02-02T16:53:52.046Z,40.10
2023-02-02T16:56:19.929Z,39.97
2023-02-02T16:58:47.826Z,38.97
2023-02-02T17:01:17.614Z,39.80
2023-02-02T17:03:45.205Z,39.58
2023-02-02T17:06:12.814Z,40.00
2023-02-02T17:08:42.552Z,38.00
2023-02-02T17:11:10.123Z,39.35
2023-02-02T17:13:37.760Z,40.05
2023-02-02T17:16:07.455Z,42.28
2023-02-02T17:18:35.035Z,41.67
2023-02-02T17:21:02.803Z,41.72
2023-02-02T17:23:32.508Z,41.97
2023-02-02T17:26:00.113Z,41.65
2023-02-02T17:28:28.007Z,40.47
2023-02-02T17:30:55.753Z,42.05
2023-02-02T17:33:23.361Z,42.65
2023-02-02T17:35:55.403Z,43.05
2023-02-02T17:38:25.753Z,41.55
2023-02-02T17:40:53.365Z,40.40
2023-02-02T17:43:21.147Z,40.95
2023-02-02T17:45:49.798Z,39.80
2023-02-02T17:48:17.573Z,40.15
2023-02-02T17:50:45.116Z,39.08
2023-02-02T17:53:13.823Z,38.63
2023-02-02T17:55:41.420Z,37.83
2023-02-02T17:58:08.971Z,39.95
2023-02-02T18:00:38.769Z,39.97
2023-02-02T18:03:10.203Z,40.95
2023-02-02T18:05:43.464Z,41.97
2023-02-02T18:08:14.505Z,43.17
2023-02-02T18:10:45.476Z,43.75
2023-02-02T18:13:13.929Z,43.17
2023-02-02T18:15:42.034Z,41.42
2023-02-02T18:18:11.768Z,42.28
2023-02-02T18:20:39.523Z,43.35
2023-02-02T18:23:08.306Z,41.67
2023-02-02T18:25:38.200Z,42.45
2023-02-02T18:28:05.823Z,42.20
2023-02-02T18:30:33.699Z,43.15
2023-02-02T18:33:03.344Z,42.70
2023-02-02T18:35:31.092Z,42.03
2023-02-02T18:37:58.744Z,41.72
2023-02-02T18:40:28.459Z,41.35
2023-02-02T18:42:56.046Z,40.55
2023-02-02T18:45:23.868Z,42.75
2023-02-02T18:47:53.011Z,42.28
2023-02-02T18:50:20.682Z,40.97
2023-02-02T18:52:48.602Z,42.20
2023-02-02T18:55:16.191Z,41.00
2023-02-02T18:57:43.790Z,39.45
2023-02-02T19:00:11.636Z,40.53
2023-02-02T19:02:41.929Z,39.42
2023-02-02T19:05:09.473Z,41.33
2023-02-02T19:07:37.283Z,38.08
2023-02-02T19:10:06.946Z,38.75
2023-02-02T19:12:34.543Z,39.08
2023-02-02T19:15:02.325Z,39.58
2023-02-02T19:17:31.985Z,39.20
2023-02-02T19:19:59.551Z,39.30
2023-02-02T19:22:27.314Z,39.80
2023-02-02T19:24:57.019Z,39.00
2023-02-02T19:27:24.606Z,39.80
2023-02-02T19:29:52.495Z,36.88
2023-02-02T19:32:22.277Z,38.22
2023-02-02T19:34:49.853Z,38.10
2023-02-02T19:37:17.453Z,37.75
2023-02-02T19:39:47.148Z,38.17
2023-02-02T19:42:14.707Z,36.13
2023-02-02T19:44:42.525Z,37.03
2023-02-02T19:47:12.317Z,36.05
2023-02-02T19:49:39.922Z,34.95
2023-02-02T19:52:07.620Z,34.83
2023-02-02T19:54:37.361Z,34.63
2023-02-02T19:57:04.959Z,34.67
2023-02-02T19:59:32.733Z,34.95
2023-02-02T20:02:02.564Z,34.72
2023-02-02T20:04:30.151Z,34.05
2023-02-02T20:06:59.724Z,35.00
2023-02-02T20:09:29.663Z,35.55
2023-02-02T20:11:57.323Z,33.38
2023-02-02T20:14:25.150Z,34.17
2023-02-02T20:16:53.901Z,34.22
2023-02-02T20:19:22.459Z,34.85
2023-02-02T20:21:57.875Z,34.53
2023-02-02T20:24:25.462Z,35.88
2023-02-02T20:26:53.147Z,37.38
2023-02-02T20:29:23.137Z,35.80
2023-02-02T20:31:50.928Z,34.47
2023-02-02T20:34:20.747Z,35.17
2023-02-02T20:36:51.314Z,34.83
2023-02-02T20:39:18.811Z,33.67
2023-02-02T20:41:46.398Z,43.33
2023-02-02T20:44:16.260Z,46.17
2023-02-02T20:46:43.755Z,46.33
2023-02-02T20:49:11.348Z,42.58
2023-02-02T20:51:41.355Z,40.42
2023-02-02T20:54:08.952Z,38.83
2023-02-02T20:56:36.442Z,39.33
2023-02-02T20:59:07.392Z,36.45
2023-02-02T21:01:35.052Z,33.10
2023-02-02T21:04:02.714Z,31.83
2023-02-02T21:06:33.151Z,29.10
2023-02-02T21:09:00.824Z,29.00
2023-02-02T21:11:28.432Z,28.85
2023-02-02T21:13:58.441Z,27.83
2023-02-02T21:16:25.978Z,27.73
2023-02-02T21:18:53.512Z,28.00
2023-02-02T21:21:23.401Z,26.67
2023-02-02T21:23:50.943Z,27.60
2023-02-02T21:28:49.266Z,29.45
2023-02-02T21:31:18.356Z,28.73
2023-02-02T21:33:47.232Z,34.17
2023-02-02T21:36:17.206Z,34.95
2023-02-02T21:38:55.543Z,32.08
2023-02-02T21:41:37.696Z,29.35
2023-02-02T21:44:05.486Z,30.02
2023-02-02T21:46:33.105Z,29.67
2023-02-02T21:49:02.997Z,27.52
2023-02-02T21:51:30.989Z,29.55
2023-02-02T21:53:58.621Z,30.08
2023-02-02T21:56:28.367Z,30.38
2023-02-02T21:58:56.116Z,28.23
2023-02-02T22:01:23.808Z,25.17
2023-02-02T22:03:55.450Z,23.58
2023-02-02T22:06:23.302Z,23.27
2023-02-02T22:08:50.881Z,21.92
2023-02-02T22:11:20.656Z,20.30
2023-02-02T22:13:48.264Z,21.30
2023-02-02T22:16:15.922Z,19.10
2023-02-02T22:18:45.674Z,17.63
2023-02-02T22:21:13.356Z,18.15
2023-02-02T22:23:41.025Z,16.85
2023-02-02T22:26:08.750Z,16.00
2023-02-02T22:28:37.394Z,19.50
2023-02-02T22:31:05.199Z,16.83
2023-02-02T22:33:37.542Z,17.20
2023-02-02T22:36:05.694Z,17.73
2023-02-02T22:38:33.698Z,16.48
2023-02-02T22:41:01.367Z,16.63
2023-02-02T22:43:29.044Z,14.35
2023-02-02T22:45:56.639Z,14.25
2023-02-02T22:48:24.354Z,14.20
2023-02-02T22:50:52.215Z,14.75
2023-02-02T22:53:19.986Z,14.98
2023-02-02T22:55:49.579Z,14.27
2023-02-02T22:58:17.044Z,14.13
2023-02-02T23:01:05.440Z,13.63
2023-02-02T23:03:38.992Z,13.73
2023-02-02T23:06:19.146Z,17.17
2023-02-02T23:08:52.950Z,16.38
2023-02-02T23:11:25.063Z,16.20
2023-02-02T23:14:12.732Z,17.63
2023-02-02T23:17:02.298Z,15.90
2023-02-02T23:19:38.636Z,12.25
2023-02-02T23:22:09.352Z,11.75
2023-02-02T23:24:37.450Z,11.13
2023-02-02T23:27:09.506Z,10.18
2023-02-02T23:29:39.717Z,10.95
2023-02-02T23:32:07.568Z,10.27
2023-02-02T23:34:35.335Z,9.18
2023-02-02T23:37:05.140Z,10.60
2023-02-02T23:39:32.724Z,9.90
2023-02-02T23:42:01.316Z,17.08
2023-02-02T23:44:30.964Z,40.22
2023-02-02T23:46:58.660Z,44.67
2023-02-02T23:49:26.683Z,30.20
2023-02-02T23:51:56.488Z,23.33
2023-02-02T23:54:26.925Z,17.98
2023-02-02T23:56:54.697Z,15.15
2023-02-02T23:59:23.816Z,12.52
